sensor_id;sensor_type;location;lat;lon;timestamp;P1;durP1;ratioP1;P2;durP2;ratioP2
69890;SDS011;57170;43.964;21.262;2022-11-13T00:00:42;57.78;;;38.58;;
69890;SDS011;57170;43.964;21.262;2022-11-13T00:03:08;53.95;;;36.72;;
69890;SDS011;57170;43.964;21.262;2022-11-13T00:05:34;72.15;;;47.63;;
69890;SDS011;57170;43.964;21.262;2022-11-13T00:08:01;68.50;;;48.50;;
69890;SDS011;57170;43.964;21.262;2022-11-13T00:10:27;79.53;;;52.17;;
69890;SDS011;57170;43.964;21.262;2022-11-13T00:12:53;90.15;;;60.50;;
69890;SDS011;57170;43.964;21.262;2022-11-13T00:15:20;111.43;;;68.60;;
69890;SDS011;57170;43.964;21.262;2022-11-13T00:17:46;78.25;;;51.70;;
69890;SDS011;57170;43.964;21.262;2022-11-13T00:20:12;72.53;;;53.35;;
69890;SDS011;57170;43.964;21.262;2022-11-13T00:22:38;84.45;;;56.85;;
69890;SDS011;57170;43.964;21.262;2022-11-13T00:25:04;81.05;;;55.15;;
69890;SDS011;57170;43.964;21.262;2022-11-13T00:27:31;74.50;;;48.15;;
69890;SDS011;57170;43.964;21.262;2022-11-13T00:29:57;76.32;;;49.83;;
69890;SDS011;57170;43.964;21.262;2022-11-13T00:32:23;101.22;;;57.35;;
69890;SDS011;57170;43.964;21.262;2022-11-13T00:34:50;94.97;;;59.67;;
69890;SDS011;57170;43.964;21.262;2022-11-13T00:37:16;102.63;;;64.95;;
69890;SDS011;57170;43.964;21.262;2022-11-13T00:39:43;90.20;;;59.55;;
69890;SDS011;57170;43.964;21.262;2022-11-13T00:42:09;122.68;;;73.20;;
69890;SDS011;57170;43.964;21.262;2022-11-13T00:44:35;151.27;;;100.80;;
69890;SDS011;57170;43.964;21.262;2022-11-13T00:47:01;118.35;;;75.65;;
69890;SDS011;57170;43.964;21.262;2022-11-13T00:49:27;128.60;;;76.70;;
69890;SDS011;57170;43.964;21.262;2022-11-13T00:51:53;115.35;;;77.85;;
69890;SDS011;57170;43.964;21.262;2022-11-13T00:54:19;112.35;;;73.75;;
69890;SDS011;57170;43.964;21.262;2022-11-13T00:56:45;106.80;;;71.30;;
69890;SDS011;57170;43.964;21.262;2022-11-13T00:59:11;111.47;;;74.60;;
69890;SDS011;57170;43.964;21.262;2022-11-13T01:01:37;104.63;;;70.88;;
69890;SDS011;57170;43.964;21.262;2022-11-13T01:04:04;105.00;;;69.85;;
69890;SDS011;57170;43.964;21.262;2022-11-13T01:06:30;112.47;;;75.20;;
69890;SDS011;57170;43.964;21.262;2022-11-13T01:08:56;81.03;;;58.17;;
69890;SDS011;57170;43.964;21.262;2022-11-13T01:11:24;87.75;;;60.25;;
69890;SDS011;57170;43.964;21.262;2022-11-13T01:13:51;98.82;;;68.53;;
69890;SDS011;57170;43.964;21.262;2022-11-13T01:16:18;95.28;;;65.18;;
69890;SDS011;57170;43.964;21.262;2022-11-13T01:18:44;85.20;;;57.83;;
69890;SDS011;57170;43.964;21.262;2022-11-13T01:23:37;88.53;;;59.67;;
69890;SDS011;57170;43.964;21.262;2022-11-13T01:26:04;74.85;;;54.70;;
69890;SDS011;57170;43.964;21.262;2022-11-13T01:28:31;80.90;;;57.35;;
69890;SDS011;57170;43.964;21.262;2022-11-13T01:30:57;105.28;;;69.78;;
69890;SDS011;57170;43.964;21.262;2022-11-13T01:33:23;98.22;;;64.65;;
69890;SDS011;57170;43.964;21.262;2022-11-13T01:35:49;108.97;;;70.25;;
69890;SDS011;57170;43.964;21.262;2022-11-13T01:38:15;85.05;;;55.50;;
69890;SDS011;57170;43.964;21.262;2022-11-13T01:40:45;73.63;;;47.90;;
69890;SDS011;57170;43.964;21.262;2022-11-13T01:43:27;54.10;;;36.75;;
69890;SDS011;57170;43.964;21.262;2022-11-13T01:48:27;49.38;;;31.60;;
69890;SDS011;57170;43.964;21.262;2022-11-13T01:50:57;45.65;;;30.08;;
69890;SDS011;57170;43.964;21.262;2022-11-13T01:53:23;48.60;;;30.20;;
69890;SDS011;57170;43.964;21.262;2022-11-13T01:55:50;45.17;;;28.83;;
69890;SDS011;57170;43.964;21.262;2022-11-13T01:58:16;46.22;;;31.10;;
69890;SDS011;57170;43.964;21.262;2022-11-13T02:00:42;56.42;;;34.35;;
69890;SDS011;57170;43.964;21.262;2022-11-13T02:03:08;63.55;;;38.28;;
69890;SDS011;57170;43.964;21.262;2022-11-13T02:05:34;51.10;;;34.95;;
69890;SDS011;57170;43.964;21.262;2022-11-13T02:08:00;48.35;;;32.80;;
69890;SDS011;57170;43.964;21.262;2022-11-13T02:10:27;46.90;;;29.75;;
69890;SDS011;57170;43.964;21.262;2022-11-13T02:12:54;57.08;;;32.55;;
69890;SDS011;57170;43.964;21.262;2022-11-13T02:15:20;49.55;;;31.55;;
69890;SDS011;57170;43.964;21.262;2022-11-13T02:17:52;42.10;;;28.10;;
69890;SDS011;57170;43.964;21.262;2022-11-13T02:20:21;47.67;;;31.50;;
69890;SDS011;57170;43.964;21.262;2022-11-13T02:23:07;48.58;;;27.13;;
69890;SDS011;57170;43.964;21.262;2022-11-13T02:25:36;44.70;;;29.20;;
69890;SDS011;57170;43.964;21.262;2022-11-13T02:28:03;52.88;;;31.52;;
69890;SDS011;57170;43.964;21.262;2022-11-13T02:30:31;54.47;;;33.97;;
69890;SDS011;57170;43.964;21.262;2022-11-13T02:32:57;50.08;;;32.65;;
69890;SDS011;57170;43.964;21.262;2022-11-13T02:37:50;67.78;;;42.33;;
69890;SDS011;57170;43.964;21.262;2022-11-13T02:40:16;63.28;;;38.63;;
69890;SDS011;57170;43.964;21.262;2022-11-13T02:42:42;53.08;;;31.42;;
69890;SDS011;57170;43.964;21.262;2022-11-13T02:45:09;50.03;;;29.55;;
69890;SDS011;57170;43.964;21.262;2022-11-13T02:47:35;39.25;;;24.15;;
69890;SDS011;57170;43.964;21.262;2022-11-13T02:50:01;40.47;;;25.67;;
69890;SDS011;57170;43.964;21.262;2022-11-13T02:52:28;29.95;;;19.58;;
69890;SDS011;57170;43.964;21.262;2022-11-13T02:54:55;26.67;;;18.92;;
69890;SDS011;57170;43.964;21.262;2022-11-13T02:57:21;34.75;;;19.35;;
69890;SDS011;57170;43.964;21.262;2022-11-13T02:59:47;29.98;;;18.00;;
69890;SDS011;57170;43.964;21.262;2022-11-13T03:02:14;35.63;;;21.67;;
69890;SDS011;57170;43.964;21.262;2022-11-13T03:04:40;44.30;;;24.85;;
69890;SDS011;57170;43.964;21.262;2022-11-13T03:07:06;39.85;;;22.65;;
69890;SDS011;57170;43.964;21.262;2022-11-13T03:09:32;40.20;;;22.23;;
69890;SDS011;57170;43.964;21.262;2022-11-13T03:11:58;32.42;;;21.08;;
69890;SDS011;57170;43.964;21.262;2022-11-13T03:14:24;40.30;;;23.48;;
69890;SDS011;57170;43.964;21.262;2022-11-13T03:16:50;35.78;;;21.50;;
69890;SDS011;57170;43.964;21.262;2022-11-13T03:19:16;32.60;;;19.25;;
69890;SDS011;57170;43.964;21.262;2022-11-13T03:21:42;30.00;;;17.85;;
69890;SDS011;57170;43.964;21.262;2022-11-13T03:24:09;29.65;;;19.85;;
69890;SDS011;57170;43.964;21.262;2022-11-13T03:26:35;30.05;;;18.30;;
69890;SDS011;57170;43.964;21.262;2022-11-13T03:29:01;32.00;;;17.92;;
69890;SDS011;57170;43.964;21.262;2022-11-13T03:31:27;29.15;;;18.27;;
69890;SDS011;57170;43.964;21.262;2022-11-13T03:33:53;32.05;;;18.13;;
69890;SDS011;57170;43.964;21.262;2022-11-13T03:36:19;27.45;;;17.25;;
69890;SDS011;57170;43.964;21.262;2022-11-13T03:38:46;28.48;;;20.13;;
69890;SDS011;57170;43.964;21.262;2022-11-13T03:41:12;38.10;;;21.50;;
69890;SDS011;57170;43.964;21.262;2022-11-13T03:43:41;30.38;;;19.95;;
69890;SDS011;57170;43.964;21.262;2022-11-13T03:46:07;35.55;;;20.15;;
69890;SDS011;57170;43.964;21.262;2022-11-13T03:48:33;37.53;;;20.95;;
69890;SDS011;57170;43.964;21.262;2022-11-13T03:51:00;30.80;;;19.15;;
69890;SDS011;57170;43.964;21.262;2022-11-13T03:53:26;30.02;;;20.38;;
69890;SDS011;57170;43.964;21.262;2022-11-13T03:55:52;37.20;;;19.00;;
69890;SDS011;57170;43.964;21.262;2022-11-13T03:58:18;30.42;;;19.73;;
69890;SDS011;57170;43.964;21.262;2022-11-13T04:00:45;31.60;;;21.20;;
69890;SDS011;57170;43.964;21.262;2022-11-13T04:03:11;28.02;;;19.58;;
69890;SDS011;57170;43.964;21.262;2022-11-13T04:05:37;24.35;;;17.83;;
69890;SDS011;57170;43.964;21.262;2022-11-13T04:08:04;27.92;;;18.88;;
69890;SDS011;57170;43.964;21.262;2022-11-13T04:10:30;25.00;;;17.10;;
69890;SDS011;57170;43.964;21.262;2022-11-13T04:12:56;29.02;;;17.27;;
69890;SDS011;57170;43.964;21.262;2022-11-13T04:15:22;28.33;;;19.10;;
69890;SDS011;57170;43.964;21.262;2022-11-13T04:17:48;34.88;;;19.77;;
69890;SDS011;57170;43.964;21.262;2022-11-13T04:20:14;25.77;;;16.45;;
69890;SDS011;57170;43.964;21.262;2022-11-13T04:22:41;25.65;;;17.20;;
69890;SDS011;57170;43.964;21.262;2022-11-13T04:25:07;25.25;;;16.65;;
69890;SDS011;57170;43.964;21.262;2022-11-13T04:27:34;27.25;;;18.42;;
69890;SDS011;57170;43.964;21.262;2022-11-13T04:30:00;26.98;;;18.55;;
69890;SDS011;57170;43.964;21.262;2022-11-13T04:32:26;28.20;;;17.65;;
69890;SDS011;57170;43.964;21.262;2022-11-13T04:34:52;32.30;;;19.95;;
69890;SDS011;57170;43.964;21.262;2022-11-13T04:37:18;30.73;;;19.77;;
69890;SDS011;57170;43.964;21.262;2022-11-13T04:39:44;26.77;;;17.63;;
69890;SDS011;57170;43.964;21.262;2022-11-13T04:42:11;33.60;;;21.60;;
69890;SDS011;57170;43.964;21.262;2022-11-13T04:44:55;32.90;;;21.02;;
69890;SDS011;57170;43.964;21.262;2022-11-13T04:47:22;30.95;;;20.00;;
69890;SDS011;57170;43.964;21.262;2022-11-13T04:49:48;29.92;;;19.45;;
69890;SDS011;57170;43.964;21.262;2022-11-13T04:52:14;34.65;;;19.10;;
69890;SDS011;57170;43.964;21.262;2022-11-13T04:54:40;30.00;;;18.23;;
69890;SDS011;57170;43.964;21.262;2022-11-13T04:57:06;26.63;;;17.48;;
69890;SDS011;57170;43.964;21.262;2022-11-13T04:59:32;29.10;;;21.63;;
69890;SDS011;57170;43.964;21.262;2022-11-13T05:01:58;29.00;;;18.48;;
69890;SDS011;57170;43.964;21.262;2022-11-13T05:04:24;29.67;;;18.35;;
69890;SDS011;57170;43.964;21.262;2022-11-13T05:06:50;25.98;;;16.95;;
69890;SDS011;57170;43.964;21.262;2022-11-13T05:09:17;30.73;;;22.30;;
69890;SDS011;57170;43.964;21.262;2022-11-13T05:11:43;27.90;;;17.75;;
69890;SDS011;57170;43.964;21.262;2022-11-13T05:14:12;24.67;;;16.80;;
69890;SDS011;57170;43.964;21.262;2022-11-13T05:16:38;26.40;;;18.95;;
69890;SDS011;57170;43.964;21.262;2022-11-13T05:19:05;26.13;;;16.40;;
69890;SDS011;57170;43.964;21.262;2022-11-13T05:21:32;29.05;;;18.15;;
69890;SDS011;57170;43.964;21.262;2022-11-13T05:23:58;21.95;;;15.98;;
69890;SDS011;57170;43.964;21.262;2022-11-13T05:26:24;36.08;;;19.70;;
69890;SDS011;57170;43.964;21.262;2022-11-13T05:28:55;23.20;;;15.93;;
69890;SDS011;57170;43.964;21.262;2022-11-13T05:31:22;24.38;;;16.45;;
69890;SDS011;57170;43.964;21.262;2022-11-13T05:33:48;29.02;;;17.00;;
69890;SDS011;57170;43.964;21.262;2022-11-13T05:36:16;29.58;;;19.45;;
69890;SDS011;57170;43.964;21.262;2022-11-13T05:38:42;26.42;;;17.02;;
69890;SDS011;57170;43.964;21.262;2022-11-13T05:41:10;32.53;;;19.92;;
69890;SDS011;57170;43.964;21.262;2022-11-13T05:43:37;26.48;;;17.75;;
69890;SDS011;57170;43.964;21.262;2022-11-13T05:46:04;33.38;;;20.85;;
69890;SDS011;57170;43.964;21.262;2022-11-13T05:48:30;35.90;;;22.40;;
69890;SDS011;57170;43.964;21.262;2022-11-13T05:51:39;37.10;;;23.75;;
69890;SDS011;57170;43.964;21.262;2022-11-13T05:53:46;41.30;;;23.17;;
69890;SDS011;57170;43.964;21.262;2022-11-13T05:56:23;40.50;;;25.17;;
69890;SDS011;57170;43.964;21.262;2022-11-13T05:58:49;34.90;;;23.77;;
69890;SDS011;57170;43.964;21.262;2022-11-13T06:01:20;34.38;;;24.17;;
69890;SDS011;57170;43.964;21.262;2022-11-13T06:03:47;31.95;;;21.05;;
69890;SDS011;57170;43.964;21.262;2022-11-13T06:06:14;38.45;;;25.38;;
69890;SDS011;57170;43.964;21.262;2022-11-13T06:08:41;42.13;;;24.48;;
69890;SDS011;57170;43.964;21.262;2022-11-13T06:11:08;38.95;;;25.05;;
69890;SDS011;57170;43.964;21.262;2022-11-13T06:13:34;44.75;;;26.88;;
69890;SDS011;57170;43.964;21.262;2022-11-13T06:18:30;41.85;;;25.92;;
69890;SDS011;57170;43.964;21.262;2022-11-13T06:21:00;33.17;;;23.13;;
69890;SDS011;57170;43.964;21.262;2022-11-13T06:23:26;36.20;;;23.27;;
69890;SDS011;57170;43.964;21.262;2022-11-13T06:25:58;31.35;;;23.00;;
69890;SDS011;57170;43.964;21.262;2022-11-13T06:28:24;32.33;;;21.33;;
69890;SDS011;57170;43.964;21.262;2022-11-13T06:30:50;28.67;;;20.75;;
69890;SDS011;57170;43.964;21.262;2022-11-13T06:33:16;24.08;;;18.02;;
69890;SDS011;57170;43.964;21.262;2022-11-13T06:35:42;28.15;;;18.92;;
69890;SDS011;57170;43.964;21.262;2022-11-13T06:38:08;27.00;;;20.52;;
69890;SDS011;57170;43.964;21.262;2022-11-13T06:40:36;29.40;;;24.02;;
69890;SDS011;57170;43.964;21.262;2022-11-13T06:43:02;27.40;;;21.25;;
69890;SDS011;57170;43.964;21.262;2022-11-13T06:45:29;27.33;;;23.42;;
69890;SDS011;57170;43.964;21.262;2022-11-13T06:47:55;28.10;;;22.15;;
69890;SDS011;57170;43.964;21.262;2022-11-13T06:50:21;27.60;;;17.85;;
69890;SDS011;57170;43.964;21.262;2022-11-13T06:52:47;28.45;;;19.67;;
69890;SDS011;57170;43.964;21.262;2022-11-13T06:55:13;25.33;;;22.60;;
69890;SDS011;57170;43.964;21.262;2022-11-13T06:57:39;28.35;;;24.70;;
69890;SDS011;57170;43.964;21.262;2022-11-13T07:00:05;28.15;;;22.60;;
69890;SDS011;57170;43.964;21.262;2022-11-13T07:02:32;27.58;;;23.55;;
69890;SDS011;57170;43.964;21.262;2022-11-13T07:04:58;28.63;;;24.92;;
69890;SDS011;57170;43.964;21.262;2022-11-13T07:07:24;27.02;;;22.70;;
69890;SDS011;57170;43.964;21.262;2022-11-13T07:09:50;27.73;;;24.70;;
69890;SDS011;57170;43.964;21.262;2022-11-13T07:12:16;24.95;;;21.83;;
69890;SDS011;57170;43.964;21.262;2022-11-13T07:14:42;22.77;;;19.20;;
69890;SDS011;57170;43.964;21.262;2022-11-13T07:17:08;21.23;;;18.92;;
69890;SDS011;57170;43.964;21.262;2022-11-13T07:19:34;20.83;;;18.70;;
69890;SDS011;57170;43.964;21.262;2022-11-13T07:22:00;23.48;;;20.48;;
69890;SDS011;57170;43.964;21.262;2022-11-13T07:24:26;27.45;;;24.02;;
69890;SDS011;57170;43.964;21.262;2022-11-13T07:26:52;25.85;;;22.42;;
69890;SDS011;57170;43.964;21.262;2022-11-13T07:29:19;29.75;;;26.58;;
69890;SDS011;57170;43.964;21.262;2022-11-13T07:31:45;30.40;;;26.35;;
69890;SDS011;57170;43.964;21.262;2022-11-13T07:34:11;34.00;;;26.88;;
69890;SDS011;57170;43.964;21.262;2022-11-13T07:36:38;31.75;;;28.65;;
69890;SDS011;57170;43.964;21.262;2022-11-13T07:39:04;31.17;;;27.85;;
69890;SDS011;57170;43.964;21.262;2022-11-13T07:41:30;29.48;;;26.45;;
69890;SDS011;57170;43.964;21.262;2022-11-13T07:43:57;30.38;;;26.98;;
69890;SDS011;57170;43.964;21.262;2022-11-13T07:46:23;32.10;;;28.75;;
69890;SDS011;57170;43.964;21.262;2022-11-13T07:48:49;38.58;;;34.60;;
69890;SDS011;57170;43.964;21.262;2022-11-13T07:51:15;39.10;;;34.92;;
69890;SDS011;57170;43.964;21.262;2022-11-13T07:53:41;34.03;;;30.55;;
69890;SDS011;57170;43.964;21.262;2022-11-13T07:56:07;36.20;;;32.40;;
69890;SDS011;57170;43.964;21.262;2022-11-13T07:58:33;36.63;;;32.30;;
69890;SDS011;57170;43.964;21.262;2022-11-13T08:01:00;36.70;;;32.88;;
69890;SDS011;57170;43.964;21.262;2022-11-13T08:03:27;37.05;;;32.22;;
69890;SDS011;57170;43.964;21.262;2022-11-13T08:05:58;38.55;;;33.90;;
69890;SDS011;57170;43.964;21.262;2022-11-13T08:08:24;38.08;;;34.05;;
69890;SDS011;57170;43.964;21.262;2022-11-13T08:10:50;40.80;;;36.60;;
69890;SDS011;57170;43.964;21.262;2022-11-13T08:13:16;36.78;;;32.92;;
69890;SDS011;57170;43.964;21.262;2022-11-13T08:15:42;36.00;;;32.22;;
69890;SDS011;57170;43.964;21.262;2022-11-13T08:18:08;32.08;;;28.77;;
69890;SDS011;57170;43.964;21.262;2022-11-13T08:20:35;31.25;;;28.00;;
69890;SDS011;57170;43.964;21.262;2022-11-13T08:23:01;27.85;;;25.08;;
69890;SDS011;57170;43.964;21.262;2022-11-13T08:25:28;25.17;;;22.55;;
69890;SDS011;57170;43.964;21.262;2022-11-13T08:27:55;25.42;;;22.92;;
69890;SDS011;57170;43.964;21.262;2022-11-13T08:30:21;26.33;;;23.83;;
69890;SDS011;57170;43.964;21.262;2022-11-13T08:32:48;24.73;;;22.23;;
69890;SDS011;57170;43.964;21.262;2022-11-13T08:35:14;32.53;;;25.02;;
69890;SDS011;57170;43.964;21.262;2022-11-13T08:37:40;29.67;;;26.50;;
69890;SDS011;57170;43.964;21.262;2022-11-13T08:40:06;27.20;;;24.63;;
69890;SDS011;57170;43.964;21.262;2022-11-13T08:42:32;30.98;;;27.98;;
69890;SDS011;57170;43.964;21.262;2022-11-13T08:44:58;26.52;;;23.98;;
69890;SDS011;57170;43.964;21.262;2022-11-13T08:47:25;26.10;;;23.60;;
69890;SDS011;57170;43.964;21.262;2022-11-13T08:49:53;25.48;;;22.88;;
69890;SDS011;57170;43.964;21.262;2022-11-13T08:52:19;26.13;;;23.55;;
69890;SDS011;57170;43.964;21.262;2022-11-13T08:54:45;22.90;;;20.65;;
69890;SDS011;57170;43.964;21.262;2022-11-13T08:57:11;22.10;;;19.92;;
69890;SDS011;57170;43.964;21.262;2022-11-13T08:59:37;20.58;;;18.50;;
69890;SDS011;57170;43.964;21.262;2022-11-13T09:02:03;21.35;;;19.25;;
69890;SDS011;57170;43.964;21.262;2022-11-13T09:04:30;20.73;;;18.60;;
69890;SDS011;57170;43.964;21.262;2022-11-13T09:06:56;20.27;;;18.27;;
69890;SDS011;57170;43.964;21.262;2022-11-13T09:09:22;22.35;;;20.05;;
69890;SDS011;57170;43.964;21.262;2022-11-13T09:11:48;27.88;;;25.10;;
69890;SDS011;57170;43.964;21.262;2022-11-13T09:14:14;21.95;;;19.83;;
69890;SDS011;57170;43.964;21.262;2022-11-13T09:16:40;22.05;;;19.80;;
69890;SDS011;57170;43.964;21.262;2022-11-13T09:19:07;19.23;;;17.33;;
69890;SDS011;57170;43.964;21.262;2022-11-13T09:21:33;24.77;;;21.10;;
69890;SDS011;57170;43.964;21.262;2022-11-13T09:23:59;18.95;;;16.88;;
69890;SDS011;57170;43.964;21.262;2022-11-13T09:26:25;18.23;;;16.40;;
69890;SDS011;57170;43.964;21.262;2022-11-13T09:28:51;21.65;;;18.55;;
69890;SDS011;57170;43.964;21.262;2022-11-13T09:31:17;21.80;;;18.95;;
69890;SDS011;57170;43.964;21.262;2022-11-13T09:33:43;20.73;;;18.58;;
69890;SDS011;57170;43.964;21.262;2022-11-13T09:36:10;17.10;;;15.30;;
69890;SDS011;57170;43.964;21.262;2022-11-13T09:38:37;19.65;;;17.35;;
69890;SDS011;57170;43.964;21.262;2022-11-13T09:43:35;20.00;;;17.90;;
69890;SDS011;57170;43.964;21.262;2022-11-13T09:46:17;22.05;;;19.42;;
69890;SDS011;57170;43.964;21.262;2022-11-13T09:49:23;29.42;;;23.73;;
69890;SDS011;57170;43.964;21.262;2022-11-13T09:51:37;23.00;;;20.08;;
69890;SDS011;57170;43.964;21.262;2022-11-13T09:54:13;19.38;;;17.13;;
69890;SDS011;57170;43.964;21.262;2022-11-13T09:56:45;18.13;;;15.95;;
69890;SDS011;57170;43.964;21.262;2022-11-13T10:07:18;18.17;;;15.73;;
69890;SDS011;57170;43.964;21.262;2022-11-13T10:12:13;16.55;;;14.20;;
69890;SDS011;57170;43.964;21.262;2022-11-13T10:14:41;17.13;;;15.35;;
69890;SDS011;57170;43.964;21.262;2022-11-13T10:19:46;16.80;;;14.13;;
69890;SDS011;57170;43.964;21.262;2022-11-13T10:22:27;17.13;;;15.40;;
69890;SDS011;57170;43.964;21.262;2022-11-13T10:25:17;22.48;;;18.63;;
69890;SDS011;57170;43.964;21.262;2022-11-13T10:27:41;17.25;;;15.45;;
69890;SDS011;57170;43.964;21.262;2022-11-13T10:33:13;15.38;;;13.90;;
69890;SDS011;57170;43.964;21.262;2022-11-13T10:35:51;15.20;;;13.60;;
69890;SDS011;57170;43.964;21.262;2022-11-13T10:38:31;21.25;;;16.45;;
69890;SDS011;57170;43.964;21.262;2022-11-13T10:41:31;17.98;;;16.08;;
69890;SDS011;57170;43.964;21.262;2022-11-13T10:43:54;18.93;;;16.87;;
69890;SDS011;57170;43.964;21.262;2022-11-13T10:46:21;21.80;;;19.02;;
69890;SDS011;57170;43.964;21.262;2022-11-13T10:48:48;20.73;;;17.48;;
69890;SDS011;57170;43.964;21.262;2022-11-13T10:53:50;16.25;;;14.70;;
69890;SDS011;57170;43.964;21.262;2022-11-13T10:56:29;17.05;;;15.18;;
69890;SDS011;57170;43.964;21.262;2022-11-13T11:01:25;15.95;;;14.35;;
69890;SDS011;57170;43.964;21.262;2022-11-13T11:03:51;17.23;;;15.15;;
69890;SDS011;57170;43.964;21.262;2022-11-13T11:06:17;16.77;;;14.02;;
69890;SDS011;57170;43.964;21.262;2022-11-13T11:08:43;16.50;;;14.68;;
69890;SDS011;57170;43.964;21.262;2022-11-13T11:11:13;14.82;;;13.43;;
69890;SDS011;57170;43.964;21.262;2022-11-13T11:16:36;15.68;;;13.23;;
69890;SDS011;57170;43.964;21.262;2022-11-13T11:19:04;15.20;;;12.55;;
69890;SDS011;57170;43.964;21.262;2022-11-13T11:21:32;13.13;;;11.73;;
69890;SDS011;57170;43.964;21.262;2022-11-13T11:24:05;13.50;;;12.13;;
69890;SDS011;57170;43.964;21.262;2022-11-13T11:26:36;19.80;;;14.93;;
69890;SDS011;57170;43.964;21.262;2022-11-13T11:31:31;16.40;;;14.13;;
69890;SDS011;57170;43.964;21.262;2022-11-13T11:36:33;17.35;;;13.82;;
69890;SDS011;57170;43.964;21.262;2022-11-13T11:41:50;17.67;;;15.65;;
69890;SDS011;57170;43.964;21.262;2022-11-13T11:44:25;15.68;;;13.85;;
69890;SDS011;57170;43.964;21.262;2022-11-13T11:46:54;19.55;;;16.58;;
69890;SDS011;57170;43.964;21.262;2022-11-13T11:49:21;15.35;;;13.85;;
69890;SDS011;57170;43.964;21.262;2022-11-13T11:52:35;16.63;;;13.35;;
69890;SDS011;57170;43.964;21.262;2022-11-13T11:54:42;16.25;;;14.55;;
69890;SDS011;57170;43.964;21.262;2022-11-13T12:00:04;17.70;;;13.63;;
69890;SDS011;57170;43.964;21.262;2022-11-13T12:08:08;18.27;;;13.23;;
69890;SDS011;57170;43.964;21.262;2022-11-13T12:15:51;18.30;;;12.93;;
69890;SDS011;57170;43.964;21.262;2022-11-13T12:31:35;18.02;;;15.07;;
69890;SDS011;57170;43.964;21.262;2022-11-13T12:36:47;19.85;;;15.75;;
69890;SDS011;57170;43.964;21.262;2022-11-13T12:42:01;21.20;;;15.23;;
69890;SDS011;57170;43.964;21.262;2022-11-13T12:44:29;18.80;;;15.13;;
69890;SDS011;57170;43.964;21.262;2022-11-13T12:46:59;22.52;;;15.20;;
69890;SDS011;57170;43.964;21.262;2022-11-13T12:49:31;22.38;;;17.35;;
69890;SDS011;57170;43.964;21.262;2022-11-13T12:51:59;27.85;;;18.00;;
69890;SDS011;57170;43.964;21.262;2022-11-13T12:54:28;21.65;;;16.45;;
69890;SDS011;57170;43.964;21.262;2022-11-13T13:10:12;20.25;;;15.13;;
69890;SDS011;57170;43.964;21.262;2022-11-13T13:18:01;21.25;;;15.98;;
69890;SDS011;57170;43.964;21.262;2022-11-13T13:20:34;21.13;;;15.48;;
69890;SDS011;57170;43.964;21.262;2022-11-13T13:23:00;17.80;;;13.05;;
69890;SDS011;57170;43.964;21.262;2022-11-13T13:25:28;20.98;;;14.82;;
69890;SDS011;57170;43.964;21.262;2022-11-13T13:28:01;18.65;;;13.77;;
69890;SDS011;57170;43.964;21.262;2022-11-13T13:30:30;17.92;;;12.95;;
69890;SDS011;57170;43.964;21.262;2022-11-13T13:35:45;20.67;;;13.93;;
69890;SDS011;57170;43.964;21.262;2022-11-13T13:38:34;15.43;;;13.68;;
69890;SDS011;57170;43.964;21.262;2022-11-13T13:41:11;17.73;;;13.77;;
69890;SDS011;57170;43.964;21.262;2022-11-13T13:43:43;18.30;;;13.18;;
69890;SDS011;57170;43.964;21.262;2022-11-13T13:46:15;21.98;;;15.13;;
69890;SDS011;57170;43.964;21.262;2022-11-13T13:48:43;17.98;;;13.60;;
69890;SDS011;57170;43.964;21.262;2022-11-13T13:51:19;19.02;;;15.32;;
69890;SDS011;57170;43.964;21.262;2022-11-13T13:53:48;22.25;;;16.52;;
69890;SDS011;57170;43.964;21.262;2022-11-13T13:56:14;29.20;;;19.45;;
69890;SDS011;57170;43.964;21.262;2022-11-13T13:58:42;25.67;;;20.30;;
69890;SDS011;57170;43.964;21.262;2022-11-13T14:01:13;25.80;;;20.08;;
69890;SDS011;57170;43.964;21.262;2022-11-13T14:03:40;20.40;;;17.33;;
69890;SDS011;57170;43.964;21.262;2022-11-13T14:06:13;17.42;;;14.25;;
69890;SDS011;57170;43.964;21.262;2022-11-13T14:08:42;18.25;;;13.27;;
69890;SDS011;57170;43.964;21.262;2022-11-13T14:11:21;22.77;;;17.02;;
69890;SDS011;57170;43.964;21.262;2022-11-13T14:13:51;22.87;;;18.13;;
69890;SDS011;57170;43.964;21.262;2022-11-13T14:16:17;19.42;;;15.32;;
69890;SDS011;57170;43.964;21.262;2022-11-13T14:18:43;22.25;;;15.98;;
69890;SDS011;57170;43.964;21.262;2022-11-13T14:21:19;22.70;;;16.45;;
69890;SDS011;57170;43.964;21.262;2022-11-13T14:23:50;20.90;;;16.25;;
69890;SDS011;57170;43.964;21.262;2022-11-13T14:26:16;20.00;;;17.48;;
69890;SDS011;57170;43.964;21.262;2022-11-13T14:31:12;24.17;;;18.63;;
69890;SDS011;57170;43.964;21.262;2022-11-13T14:33:43;26.05;;;18.33;;
69890;SDS011;57170;43.964;21.262;2022-11-13T14:36:09;23.33;;;18.02;;
69890;SDS011;57170;43.964;21.262;2022-11-13T14:38:38;29.45;;;19.52;;
69890;SDS011;57170;43.964;21.262;2022-11-13T14:41:05;26.23;;;20.27;;
69890;SDS011;57170;43.964;21.262;2022-11-13T14:43:32;34.47;;;20.90;;
69890;SDS011;57170;43.964;21.262;2022-11-13T14:46:00;38.60;;;25.40;;
69890;SDS011;57170;43.964;21.262;2022-11-13T14:48:27;33.92;;;25.42;;
69890;SDS011;57170;43.964;21.262;2022-11-13T14:50:58;35.38;;;24.38;;
69890;SDS011;57170;43.964;21.262;2022-11-13T14:53:54;36.83;;;23.52;;
69890;SDS011;57170;43.964;21.262;2022-11-13T14:56:11;32.45;;;24.38;;
69890;SDS011;57170;43.964;21.262;2022-11-13T14:58:41;27.75;;;21.52;;
69890;SDS011;57170;43.964;21.262;2022-11-13T15:01:18;29.50;;;22.00;;
69890;SDS011;57170;43.964;21.262;2022-11-13T15:03:45;29.90;;;21.95;;
69890;SDS011;57170;43.964;21.262;2022-11-13T15:06:22;31.80;;;23.85;;
69890;SDS011;57170;43.964;21.262;2022-11-13T15:08:48;29.75;;;22.27;;
69890;SDS011;57170;43.964;21.262;2022-11-13T15:11:16;29.95;;;22.52;;
69890;SDS011;57170;43.964;21.262;2022-11-13T15:13:42;29.98;;;21.55;;
69890;SDS011;57170;43.964;21.262;2022-11-13T15:16:15;29.58;;;22.33;;
69890;SDS011;57170;43.964;21.262;2022-11-13T15:18:44;30.42;;;22.23;;
69890;SDS011;57170;43.964;21.262;2022-11-13T15:21:11;32.53;;;22.80;;
69890;SDS011;57170;43.964;21.262;2022-11-13T15:23:37;28.35;;;22.52;;
69890;SDS011;57170;43.964;21.262;2022-11-13T15:26:03;29.88;;;22.40;;
69890;SDS011;57170;43.964;21.262;2022-11-13T15:28:29;28.38;;;22.17;;
69890;SDS011;57170;43.964;21.262;2022-11-13T15:30:55;35.10;;;25.00;;
69890;SDS011;57170;43.964;21.262;2022-11-13T15:33:21;36.50;;;22.52;;
69890;SDS011;57170;43.964;21.262;2022-11-13T15:35:47;32.05;;;21.55;;
69890;SDS011;57170;43.964;21.262;2022-11-13T15:38:13;30.10;;;22.55;;
69890;SDS011;57170;43.964;21.262;2022-11-13T15:40:39;35.25;;;23.08;;
69890;SDS011;57170;43.964;21.262;2022-11-13T15:43:08;30.13;;;22.05;;
69890;SDS011;57170;43.964;21.262;2022-11-13T15:45:34;31.05;;;22.70;;
69890;SDS011;57170;43.964;21.262;2022-11-13T15:48:00;36.45;;;25.02;;
69890;SDS011;57170;43.964;21.262;2022-11-13T15:50:27;33.65;;;24.58;;
69890;SDS011;57170;43.964;21.262;2022-11-13T15:52:53;32.97;;;24.85;;